createdAt,value
2017-10-18T00:00:16.536Z,12.6
2017-10-18T00:01:15.870Z,12.6
2017-10-18T00:02:15.076Z,12.5
2017-10-18T00:03:14.407Z,12.5
2017-10-18T00:04:13.870Z,12.5
2017-10-18T00:05:13.210Z,12.5
2017-10-18T00:06:12.046Z,12.5
2017-10-18T00:07:11.378Z,12.5
2017-10-18T00:08:10.576Z,12.5
2017-10-18T00:08:41.363Z,12.5
2017-10-18T00:10:08.877Z,12.4
2017-10-18T00:11:08.213Z,12.4
2017-10-18T00:12:07.545Z,12.4
2017-10-18T00:13:06.377Z,12.4
2017-10-18T00:14:06.295Z,12.4
2017-10-18T00:15:04.623Z,12.4
2017-10-18T00:16:03.959Z,12.4
2017-10-18T00:17:03.560Z,12.3
2017-10-18T00:18:02.395Z,12.3
2017-10-18T00:19:01.859Z,12.3
2017-10-18T00:19:32.241Z,12.3
2017-10-18T00:21:00.266Z,12.2
2017-10-18T00:21:59.342Z,12.2
2017-10-18T00:22:58.303Z,12.2
2017-10-18T00:23:57.499Z,12.2
2017-10-18T00:24:56.570Z,12.2
2017-10-18T00:25:56.034Z,12.2
2017-10-18T00:26:55.369Z,12.2
2017-10-18T00:27:54.434Z,12.2
2017-10-18T00:28:53.773Z,12.2
2017-10-18T00:29:52.611Z,12.1
2017-10-18T00:30:51.953Z,12.1
2017-10-18T00:31:51.418Z,12.1
2017-10-18T00:32:50.620Z,12.1
2017-10-18T00:33:49.458Z,12.1
2017-10-18T00:34:48.795Z,12.1
2017-10-18T00:35:48.262Z,12
2017-10-18T00:36:47.089Z,12
2017-10-18T00:37:46.551Z,12
2017-10-18T00:38:45.883Z,12
2017-10-18T00:39:44.984Z,12
2017-10-18T00:40:43.682Z,11.9
2017-10-18T00:41:43.148Z,11.9
2017-10-18T00:42:42.348Z,11.9
2017-10-18T00:43:41.947Z,11.9
2017-10-18T00:44:40.910Z,11.9
2017-10-18T00:45:39.866Z,11.8
2017-10-18T00:46:39.335Z,11.8
2017-10-18T00:47:38.034Z,11.8
2017-10-18T00:48:37.253Z,11.8
2017-10-18T00:49:36.721Z,11.7
2017-10-18T00:50:35.789Z,11.7
2017-10-18T00:51:35.257Z,11.7
2017-10-18T00:52:34.094Z,11.7
2017-10-18T00:53:33.293Z,11.7
2017-10-18T00:54:32.488Z,11.7
2017-10-18T00:55:31.955Z,11.6
2017-10-18T00:56:31.292Z,11.6
2017-10-18T00:57:30.003Z,11.6
2017-10-18T00:58:29.074Z,11.6
2017-10-18T00:59:28.278Z,11.6
2017-10-18T01:00:27.224Z,11.6
2017-10-18T01:01:26.793Z,11.5
2017-10-18T02:51:25.149Z,10.6
2017-10-18T02:51:27.248Z,10.6
2017-10-18T02:51:57.920Z,10.4
2017-10-18T02:52:53.506Z,10.4
2017-10-18T02:53:52.843Z,10.4
2017-10-18T02:54:51.815Z,10.4
2017-10-18T02:55:51.288Z,10.4
2017-10-18T02:56:50.393Z,10.4
2017-10-18T02:57:49.367Z,10.4
2017-10-18T02:58:48.332Z,10.4
2017-10-18T02:59:47.552Z,10.4
2017-10-18T03:00:46.502Z,10.4
2017-10-18T03:01:46.115Z,10.4
2017-10-18T03:02:45.223Z,10.4
2017-10-18T03:03:44.571Z,10.4
2017-10-18T03:04:43.697Z,10.3
2017-10-18T03:05:42.534Z,10.3
2017-10-18T03:06:42.013Z,10.3
2017-10-18T03:07:41.242Z,10.3
2017-10-18T03:08:39.814Z,10.3
2017-10-18T03:10:38.529Z,10.3
2017-10-18T03:11:37.608Z,10.3
2017-10-18T03:12:36.684Z,10.3
2017-10-18T03:13:36.039Z,10.3
2017-10-18T03:14:34.749Z,10.3
2017-10-18T03:15:34.367Z,10.3
2017-10-18T03:16:32.935Z,10.3
2017-10-18T03:17:03.455Z,10.3
2017-10-18T03:17:33.979Z,10.3
2017-10-18T03:18:31.949Z,10.3
2017-10-18T03:19:30.516Z,10.3
2017-10-18T03:20:30.251Z,10.3
2017-10-18T03:21:28.825Z,10.3
2017-10-18T03:22:28.166Z,10.2
2017-10-18T03:23:27.505Z,10.2
2017-10-18T03:24:26.352Z,10.2
2017-10-18T03:26:25.089Z,10.3
2017-10-18T03:27:23.793Z,10.3
2017-10-18T03:28:23.287Z,10.3
2017-10-18T03:29:22.637Z,10.3
2017-10-18T03:30:21.620Z,10.3
2017-10-18T03:31:20.461Z,10.3
2017-10-18T03:32:19.939Z,10.3
2017-10-18T03:33:19.536Z,10.3
2017-10-18T03:34:18.377Z,10.3
2017-10-18T03:36:16.751Z,10.3
2017-10-18T03:37:15.590Z,10.3
2017-10-18T03:38:14.921Z,10.3
2017-10-18T03:39:14.259Z,10.3
2017-10-18T03:40:13.094Z,10.3
2017-10-18T03:41:12.304Z,10.3
2017-10-18T03:42:11.784Z,10.3
2017-10-18T03:43:10.759Z,10.3
2017-10-18T03:44:09.739Z,10.4
2017-10-18T03:45:09.083Z,10.4
2017-10-18T03:46:08.185Z,10.4
2017-10-18T03:47:07.286Z,10.4
2017-10-18T03:48:06.361Z,10.4
2017-10-18T03:49:05.700Z,10.4
2017-10-18T03:50:04.666Z,10.5
2017-10-18T03:51:04.018Z,10.5
2017-10-18T03:52:03.109Z,10.5
2017-10-18T03:53:02.109Z,10.5
2017-10-18T03:54:01.321Z,10.5
2017-10-18T03:55:00.530Z,10.5
2017-10-18T03:55:59.233Z,10.5
2017-10-18T03:56:58.708Z,10.5
2017-10-18T03:57:57.915Z,10.5
2017-10-18T03:58:57.385Z,10.5
2017-10-18T03:59:56.399Z,10.6
2017-10-18T04:00:55.745Z,10.6
2017-10-18T04:01:54.321Z,10.7
2017-10-18T04:02:53.789Z,10.7
2017-10-18T04:03:53.134Z,10.7
2017-10-18T04:04:51.974Z,10.7
2017-10-18T04:05:51.048Z,10.7
2017-10-18T04:06:50.164Z,10.7
2017-10-18T04:07:49.651Z,10.7
2017-10-18T04:08:48.616Z,10.8
2017-10-18T04:09:47.820Z,10.8
2017-10-18T04:10:47.421Z,10.8
2017-10-18T04:11:46.403Z,10.8
2017-10-18T04:12:45.378Z,10.8
2017-10-18T04:13:44.716Z,10.8
2017-10-18T04:14:43.826Z,10.8
2017-10-18T04:15:43.164Z,10.8
2017-10-18T04:16:41.998Z,10.8
2017-10-18T04:17:41.473Z,10.8
2017-10-18T04:18:40.178Z,10.8
2017-10-18T04:19:39.381Z,10.8
2017-10-18T04:20:38.580Z,10.8
2017-10-18T04:21:37.789Z,10.8
2017-10-18T04:22:36.994Z,10.8
2017-10-18T04:23:35.972Z,10.8
2017-10-18T04:24:35.442Z,10.8
2017-10-18T04:25:34.150Z,10.8
2017-10-18T04:26:33.091Z,10.8
2017-10-18T04:27:32.946Z,10.8
2017-10-18T04:28:31.787Z,10.8
2017-10-18T04:29:30.995Z,10.8
2017-10-18T04:30:30.614Z,10.8
2017-10-18T04:31:29.599Z,10.8
2017-10-18T04:32:28.568Z,10.8
2017-10-18T04:33:27.513Z,10.7
2017-10-18T04:34:26.848Z,10.7
2017-10-18T04:35:26.591Z,10.7
2017-10-18T04:36:25.337Z,10.7
2017-10-18T04:37:24.286Z,10.7
2017-10-18T04:38:23.491Z,10.7
2017-10-18T04:39:22.833Z,10.7
2017-10-18T04:40:21.906Z,10.7
2017-10-18T04:41:21.249Z,10.7
2017-10-18T04:42:19.959Z,10.7
2017-10-18T04:43:19.166Z,10.7
2017-10-18T04:44:18.642Z,10.7
2017-10-18T04:45:17.349Z,10.7
2017-10-18T04:46:16.824Z,10.7
2017-10-18T04:47:16.192Z,10.7
2017-10-18T04:48:15.457Z,10.7
2017-10-18T04:49:14.560Z,10.6
2017-10-18T04:50:13.527Z,10.6
2017-10-18T04:51:12.612Z,10.6
2017-10-18T04:52:11.949Z,10.6
2017-10-18T04:53:10.660Z,10.6
2017-10-18T04:54:10.011Z,10.6
2017-10-18T04:55:09.089Z,10.6
2017-10-18T04:56:08.450Z,10.6
2017-10-18T04:57:07.407Z,10.6
2017-10-18T04:58:06.479Z,10.6
2017-10-18T04:59:05.687Z,10.6
2017-10-18T05:00:05.025Z,10.6
2017-10-18T05:01:04.368Z,10.6
2017-10-18T05:02:03.351Z,10.6
2017-10-18T05:03:02.565Z,10.6
2017-10-18T05:04:01.721Z,10.6
2017-10-18T05:04:31.748Z,10.6
2017-10-18T05:05:02.270Z,10.6
2017-10-18T05:05:32.785Z,10.6
2017-10-18T05:06:59.033Z,10.5
2017-10-18T05:07:58.519Z,10.6
2017-10-18T05:08:57.617Z,10.5
2017-10-18T05:09:56.825Z,10.5
2017-10-18T05:10:55.528Z,10.5
2017-10-18T05:12:54.381Z,10.6
2017-10-18T05:13:53.356Z,10.6
2017-10-18T05:14:52.850Z,10.5
2017-10-18T05:15:51.702Z,10.5
2017-10-18T05:16:50.899Z,10.5
2017-10-18T05:17:49.868Z,10.5
2017-10-18T05:18:49.213Z,10.5
2017-10-18T05:19:47.786Z,10.4
2017-10-18T05:20:46.997Z,10.4
2017-10-18T05:21:46.342Z,10.4
2017-10-18T05:22:45.678Z,10.4
2017-10-18T05:23:44.746Z,10.4
2017-10-18T05:24:44.086Z,10.4
2017-10-18T05:25:43.085Z,10.4
2017-10-18T05:26:42.301Z,10.4
2017-10-18T05:27:41.783Z,10.4
2017-10-18T05:28:40.789Z,10.4
2017-10-18T05:29:39.957Z,10.4
2017-10-18T05:30:39.312Z,10.4
2017-10-18T05:31:38.152Z,10.4
2017-10-18T05:32:37.353Z,10.4
2017-10-18T05:33:36.829Z,10.3
2017-10-18T05:34:35.652Z,10.3
2017-10-18T05:35:34.997Z,10.3
2017-10-18T05:36:33.572Z,10.3
2017-10-18T05:37:33.050Z,10.3
2017-10-18T05:38:32.126Z,10.3
2017-10-18T05:39:31.459Z,10.3
2017-10-18T05:40:30.027Z,10.3
2017-10-18T05:41:30.015Z,10.3
2017-10-18T05:42:28.854Z,10.3
2017-10-18T05:43:28.466Z,10.3
2017-10-18T05:44:27.442Z,10.3
2017-10-18T05:45:26.675Z,10.3
2017-10-18T05:47:24.789Z,10.3
2017-10-18T05:48:24.122Z,10.3
2017-10-18T05:49:22.824Z,10.3
2017-10-18T05:50:22.296Z,10.3
2017-10-18T05:51:21.397Z,10.3
2017-10-18T05:52:20.868Z,10.3
2017-10-18T05:53:19.844Z,10.3
2017-10-18T05:54:18.852Z,10.3
2017-10-18T05:55:18.058Z,10.3
2017-10-18T05:56:17.267Z,10.3
2017-10-18T05:57:16.096Z,10.3
2017-10-18T05:58:15.558Z,10.2
2017-10-18T05:59:14.269Z,10.3
2017-10-18T06:00:13.209Z,10.3
2017-10-18T06:01:12.562Z,10.3
2017-10-18T06:02:12.031Z,10.3
2017-10-18T06:03:10.874Z,10.3
2017-10-18T06:04:10.360Z,10.3
2017-10-18T06:05:09.715Z,10.2
2017-10-18T06:06:08.556Z,10.2
2017-10-18T06:07:07.799Z,10.3
2017-10-18T06:08:06.879Z,10.3
2017-10-18T06:09:06.220Z,10.2
2017-10-18T06:10:05.429Z,10.3
2017-10-18T06:11:04.263Z,10.3
2017-10-18T06:12:03.868Z,10.2
2017-10-18T06:13:02.440Z,10.3
2017-10-18T06:14:01.649Z,10.3
2017-10-18T06:15:01.246Z,10.3
2017-10-18T06:16:00.210Z,10.3
2017-10-18T06:16:58.911Z,10.3
2017-10-18T06:17:58.648Z,10.3
2017-10-18T06:18:57.659Z,10.3
2017-10-18T06:19:56.866Z,10.3
2017-10-18T06:20:56.103Z,10.3
2017-10-18T06:21:55.567Z,10.3
2017-10-18T06:22:54.667Z,10.3
2017-10-18T06:23:53.234Z,10.3
2017-10-18T06:24:52.837Z,10.3
2017-10-18T06:25:51.679Z,10.3
2017-10-18T06:27:50.164Z,10.3
2017-10-18T06:28:49.138Z,10.3
2017-10-18T06:29:48.378Z,10.3
2017-10-18T06:30:47.560Z,10.3
2017-10-18T06:31:46.777Z,10.3
2017-10-18T06:32:46.123Z,10.3
2017-10-18T06:33:44.954Z,10.3
2017-10-18T06:34:44.555Z,10.3
2017-10-18T06:35:43.390Z,10.3
2017-10-18T06:36:42.361Z,10.3
2017-10-18T06:37:41.843Z,10.3
2017-10-18T06:38:40.816Z,10.3
2017-10-18T06:39:40.030Z,10.4
2017-10-18T06:40:39.236Z,10.4
2017-10-18T06:41:38.207Z,10.4
2017-10-18T06:42:37.280Z,10.4
2017-10-18T06:44:35.650Z,10.4
2017-10-18T06:45:35.116Z,10.4
2017-10-18T06:46:33.819Z,10.4
2017-10-18T06:47:33.019Z,10.4
2017-10-18T06:48:32.359Z,10.4
2017-10-18T06:49:31.696Z,10.4
2017-10-18T06:50:30.417Z,10.4
2017-10-18T06:51:29.630Z,10.5
2017-10-18T06:52:29.111Z,10.5
2017-10-18T06:53:27.955Z,10.5
2017-10-18T06:54:27.168Z,10.5
2017-10-18T06:55:26.237Z,10.5
2017-10-18T06:56:25.578Z,10.5
2017-10-18T06:57:24.916Z,10.6
2017-10-18T07:00:42.197Z,10.6
2017-10-18T07:00:44.224Z,10.6
2017-10-18T07:01:21.085Z,10.6
2017-10-18T07:02:19.969Z,10.6
2017-10-18T07:03:19.352Z,10.6
2017-10-18T07:04:18.504Z,10.7
2017-10-18T07:05:17.519Z,10.7
2017-10-18T07:06:16.898Z,10.7
2017-10-18T07:07:16.042Z,10.7
2017-10-18T07:08:15.454Z,10.7
2017-10-18T07:09:14.726Z,10.7
2017-10-18T07:10:13.500Z,10.7
2017-10-18T07:11:12.932Z,10.7
2017-10-18T07:12:12.073Z,10.8
2017-10-18T07:13:11.354Z,10.8
2017-10-18T07:14:10.238Z,10.8
2017-10-18T07:15:09.242Z,10.8
2017-10-18T07:16:08.665Z,10.8
2017-10-18T07:17:07.672Z,10.8
2017-10-18T07:18:06.821Z,10.9
2017-10-18T07:19:05.960Z,10.9
2017-10-18T07:20:05.104Z,10.9
2017-10-18T07:21:04.251Z,10.9
2017-10-18T07:22:03.190Z,10.9
2017-10-18T07:23:02.973Z,10.9
2017-10-18T07:24:01.717Z,10.9
2017-10-18T07:25:00.873Z,10.9
2017-10-18T07:26:00.288Z,10.9
2017-10-18T07:26:59.294Z,11
2017-10-18T07:27:58.200Z,11
2017-10-18T07:28:28.654Z,11
2017-10-18T07:28:59.510Z,11
2017-10-18T07:29:29.327Z,11
2017-10-18T07:29:59.928Z,11
2017-10-18T07:30:55.913Z,11
2017-10-18T07:31:54.666Z,11
2017-10-18T07:32:54.312Z,11
2017-10-18T07:33:53.320Z,11.1
2017-10-18T07:34:52.465Z,11.1
2017-10-18T07:35:51.478Z,11.1
2017-10-18T07:36:50.989Z,11.1
2017-10-18T07:37:49.999Z,11.2
2017-10-18T07:38:49.145Z,11.2
2017-10-18T07:39:48.279Z,11.2
2017-10-18T07:40:47.792Z,11.2
2017-10-18T07:41:46.931Z,11.3
2017-10-18T07:42:45.805Z,11.3
2017-10-18T07:43:45.226Z,11.3
2017-10-18T07:44:44.503Z,11.3
2017-10-18T07:45:43.271Z,11.4
2017-10-18T07:46:42.546Z,11.4
2017-10-18T07:49:30.499Z,11.4
2017-10-18T07:49:32.132Z,11.4
2017-10-18T07:51:58.206Z,11.5
2017-10-18T07:51:59.974Z,11.5
2017-10-18T07:52:37.472Z,11.6
2017-10-18T07:53:36.615Z,11.6
2017-10-18T07:54:36.390Z,11.7
2017-10-18T07:55:35.031Z,11.7
2017-10-18T07:56:34.180Z,11.7
2017-10-18T07:57:33.316Z,11.7
2017-10-18T07:58:32.190Z,11.8
2017-10-18T07:59:31.696Z,11.8
2017-10-18T08:00:02.398Z,11.8
2017-10-18T08:00:33.351Z,11.8
2017-10-18T08:02:54.891Z,11.8
2017-10-18T08:02:56.393Z,11.8
2017-10-18T08:03:28.229Z,11.9
2017-10-18T08:04:27.745Z,12
2017-10-18T08:05:27.026Z,12.1
2017-10-18T08:06:26.037Z,12.1
2017-10-18T08:07:24.925Z,12.2
2017-10-18T08:08:24.438Z,12.2
2017-10-18T08:10:22.700Z,12.3
2017-10-18T08:10:53.434Z,12.3
2017-10-18T08:11:24.018Z,12.3
2017-10-18T08:11:54.234Z,12.3
2017-10-18T08:12:24.293Z,12.4
2017-10-18T08:13:20.042Z,12.4
2017-10-18T08:14:19.682Z,12.5
2017-10-18T08:15:18.690Z,12.5
2017-10-18T08:16:17.969Z,12.6
2017-10-18T08:17:16.977Z,12.6
2017-10-18T08:18:16.124Z,12.6
2017-10-18T08:19:15.396Z,12.6
2017-10-18T08:20:14.668Z,12.7
2017-10-18T08:21:13.690Z,12.7
2017-10-18T08:22:12.714Z,12.8
2017-10-18T08:22:43.037Z,12.8
2017-10-18T08:24:11.490Z,12.8
2017-10-18T08:25:10.778Z,12.9
2017-10-18T08:26:09.559Z,12.9
2017-10-18T08:27:08.569Z,12.9
2017-10-18T08:28:07.951Z,13
2017-10-18T08:29:07.227Z,13
2017-10-18T08:31:55.228Z,13
2017-10-18T08:31:57.125Z,13
2017-10-18T08:33:04.083Z,13.1
2017-10-18T08:34:03.414Z,13.1
2017-10-18T08:35:01.809Z,13.1
2017-10-18T08:36:01.728Z,13.1
2017-10-18T08:37:00.878Z,13.2
2017-10-18T08:38:58.916Z,13.2
2017-10-18T08:39:58.193Z,13.3
2017-10-18T08:40:57.488Z,13.4
2017-10-18T08:41:56.503Z,13.4
2017-10-18T08:42:55.655Z,13.5
2017-10-18T08:43:54.545Z,13.5
2017-10-18T08:44:54.197Z,13.6
2017-10-18T08:45:53.213Z,13.6
2017-10-18T08:46:52.355Z,13.6
2017-10-18T08:47:51.645Z,13.6
2017-10-18T08:48:51.071Z,13.7
2017-10-18T08:49:50.223Z,13.7
2017-10-18T08:50:49.500Z,13.7
2017-10-18T08:51:48.383Z,13.7
2017-10-18T08:52:47.263Z,13.8
2017-10-18T08:53:47.062Z,13.8
2017-10-18T08:54:46.226Z,13.8
2017-10-18T08:56:44.633Z,13.8
2017-10-18T08:57:43.777Z,13.8
2017-10-18T08:58:42.928Z,13.9
2017-10-18T08:59:42.076Z,13.9
2017-10-18T09:00:41.888Z,14
2017-10-18T09:01:40.403Z,14
2017-10-18T09:02:39.815Z,14.1
2017-10-18T09:03:38.829Z,14.1
2017-10-18T09:04:37.841Z,14.1
2017-10-18T09:05:37.360Z,14.1
2017-10-18T09:06:36.650Z,14.1
2017-10-18T09:07:35.571Z,14.1
2017-10-18T09:08:35.353Z,14.2
2017-10-18T09:09:33.866Z,14.2
2017-10-18T09:11:32.530Z,14.2
2017-10-18T09:12:31.684Z,14.2
2017-10-18T09:13:30.840Z,14.2
2017-10-18T09:14:29.985Z,14.2
2017-10-18T09:15:29.488Z,14.2
2017-10-18T09:16:28.641Z,14.2
2017-10-18T09:17:27.663Z,14.2
2017-10-18T09:18:26.817Z,14.3
2017-10-18T09:19:26.461Z,14.3
2017-10-18T09:20:25.618Z,14.3
2017-10-18T09:21:24.896Z,14.3
2017-10-18T09:22:23.646Z,14.3
2017-10-18T09:23:22.801Z,14.3
2017-10-18T09:24:22.460Z,14.3
2017-10-18T09:25:21.614Z,14.3
2017-10-18T09:26:20.647Z,14.3
2017-10-18T09:27:19.806Z,14.3
2017-10-18T09:28:19.005Z,14.3
2017-10-18T09:29:17.892Z,14.3
2017-10-18T09:30:17.541Z,14.4
2017-10-18T09:31:16.842Z,14.4
2017-10-18T09:33:15.117Z,14.4
2017-10-18T09:34:14.129Z,14.5
2017-10-18T09:35:13.934Z,14.5
2017-10-18T09:36:13.004Z,14.5
2017-10-18T09:37:12.019Z,14.5
2017-10-18T09:38:11.033Z,14.5
2017-10-18T09:40:09.476Z,14.5
2017-10-18T09:41:08.997Z,14.6
2017-10-18T09:42:08.014Z,14.6
2017-10-18T09:43:07.795Z,14.6
2017-10-18T09:44:06.040Z,14.6
2017-10-18T09:45:05.430Z,14.6
2017-10-18T09:46:05.081Z,14.6
2017-10-18T09:47:04.232Z,14.7
2017-10-18T09:48:03.386Z,14.7
2017-10-18T09:49:02.539Z,14.7
2017-10-18T09:50:01.825Z,14.7
2017-10-18T09:51:00.975Z,14.7
2017-10-18T09:52:00.490Z,14.8
2017-10-18T09:52:59.643Z,14.8
2017-10-18T09:53:58.659Z,14.9
2017-10-18T09:54:57.677Z,14.9
2017-10-18T09:55:57.337Z,14.9
2017-10-18T09:56:56.624Z,14.9
2017-10-18T09:57:55.778Z,14.9
2017-10-18T09:58:54.794Z,14.9
2017-10-18T09:59:53.950Z,14.9
2017-10-18T10:00:53.736Z,14.9
2017-10-18T10:01:52.121Z,15
2017-10-18T10:02:51.643Z,15
2017-10-18T10:03:50.664Z,15
2017-10-18T10:04:50.320Z,15
2017-10-18T10:05:49.612Z,15
2017-10-18T10:06:48.624Z,15.1
2017-10-18T10:07:47.634Z,15.1
2017-10-18T10:08:47.546Z,15.1
2017-10-18T10:09:46.065Z,15.2
2017-10-18T10:10:45.323Z,15.2
2017-10-18T10:11:44.968Z,15.2
2017-10-18T10:12:44.117Z,15.2
2017-10-18T10:13:43.259Z,15.2
2017-10-18T10:14:42.408Z,15.3
2017-10-18T10:15:42.054Z,15.3
2017-10-18T10:17:40.091Z,15.3
2017-10-18T10:18:39.747Z,15.3
2017-10-18T10:19:38.660Z,15.3
2017-10-18T10:20:37.688Z,15.4
2017-10-18T10:21:36.842Z,15.4
2017-10-18T10:22:36.219Z,15.4
2017-10-18T10:23:35.610Z,15.4
2017-10-18T10:24:34.761Z,15.5
2017-10-18T10:25:33.910Z,15.5
2017-10-18T10:26:33.166Z,15.5
2017-10-18T10:27:03.867Z,15.5
2017-10-18T10:27:34.456Z,15.6
2017-10-18T10:28:04.791Z,15.6
2017-10-18T10:28:35.254Z,15.6
2017-10-18T10:29:05.837Z,15.6
2017-10-18T10:29:35.801Z,15.7
2017-10-18T10:30:06.393Z,15.7
2017-10-18T10:30:36.489Z,15.7
2017-10-18T10:31:07.073Z,15.7
2017-10-18T10:32:28.998Z,15.8
2017-10-18T10:33:28.147Z,15.8
2017-10-18T10:34:27.294Z,15.8
2017-10-18T10:35:26.574Z,15.8
2017-10-18T10:36:25.597Z,15.8
2017-10-18T10:37:24.743Z,15.9
2017-10-18T10:38:23.885Z,15.9
2017-10-18T10:38:54.338Z,15.9
2017-10-18T10:39:24.674Z,15.9
2017-10-18T10:39:54.870Z,15.9
2017-10-18T10:40:25.467Z,15.9
2017-10-18T10:40:55.670Z,15.9
2017-10-18T10:41:26.149Z,16
2017-10-18T10:41:56.340Z,16
2017-10-18T10:43:20.385Z,16
2017-10-18T10:44:19.405Z,16
2017-10-18T10:45:19.060Z,16
2017-10-18T10:46:18.210Z,16
2017-10-18T10:47:17.359Z,16
2017-10-18T10:48:16.643Z,16.1
2017-10-18T10:49:15.799Z,16
2017-10-18T10:50:14.944Z,16.1
2017-10-18T10:51:14.091Z,16.1
2017-10-18T10:52:13.885Z,16.1
2017-10-18T10:53:12.524Z,16.1
2017-10-18T10:54:12.307Z,16.1
2017-10-18T10:55:11.186Z,16.1
2017-10-18T10:56:10.711Z,16.2
2017-10-18T10:57:09.857Z,16.2
2017-10-18T10:58:08.882Z,16.2
2017-10-18T10:59:07.764Z,16.3
2017-10-18T11:00:07.154Z,16.3
2017-10-18T11:01:06.679Z,16.3
2017-10-18T11:02:05.969Z,16.4
2017-10-18T11:03:05.252Z,16.4
2017-10-18T11:04:04.540Z,16.4
2017-10-18T11:05:03.847Z,16.5
2017-10-18T11:06:02.874Z,16.6
2017-10-18T11:07:02.287Z,16.6
2017-10-18T11:08:01.566Z,16.6
2017-10-18T11:09:00.727Z,16.7
2017-10-18T11:09:59.885Z,16.7
2017-10-18T11:10:59.543Z,16.7
2017-10-18T11:11:59.920Z,16.8
2017-10-18T11:12:57.835Z,16.8
2017-10-18T11:13:56.852Z,16.8
2017-10-18T11:14:56.503Z,16.9
2017-10-18T11:15:56.048Z,17
2017-10-18T11:16:54.831Z,17
2017-10-18T11:17:53.711Z,17
2017-10-18T11:18:53.360Z,17
2017-10-18T11:19:52.794Z,17
2017-10-18T11:20:51.939Z,17
2017-10-18T11:21:22.410Z,17
2017-10-18T11:21:52.743Z,17
2017-10-18T11:22:23.347Z,17
2017-10-18T11:22:53.551Z,17
2017-10-18T11:23:49.682Z,17
2017-10-18T11:24:48.969Z,17.1
2017-10-18T11:25:48.124Z,17.1
2017-10-18T11:26:47.281Z,17.2
2017-10-18T11:27:46.671Z,17.3
2017-10-18T11:28:45.962Z,17.3
2017-10-18T11:29:45.101Z,17.3
2017-10-18T11:30:44.618Z,17.3
2017-10-18T11:31:44.026Z,17.4
2017-10-18T11:32:43.040Z,17.4
2017-10-18T11:35:37.483Z,17.4
2017-10-18T11:35:38.995Z,17.4
2017-10-18T11:38:39.067Z,17.6
2017-10-18T11:39:38.351Z,17.7
2017-10-18T11:41:36.124Z,17.7
2017-10-18T11:42:35.784Z,17.7
2017-10-18T11:43:34.930Z,17.7
2017-10-18T11:44:34.613Z,17.7
2017-10-18T11:45:34.025Z,17.7
2017-10-18T11:47:32.319Z,17.7
2017-10-18T11:48:31.343Z,17.8
2017-10-18T11:49:30.356Z,17.8
2017-10-18T11:50:29.867Z,17.8
2017-10-18T11:52:28.632Z,17.8
2017-10-18T11:55:23.573Z,17.8
2017-10-18T11:55:25.633Z,17.8
2017-10-18T11:56:25.778Z,17.8
2017-10-18T11:57:29.081Z,17.8
2017-10-18T12:09:01.283Z,17.8
2017-10-18T12:15:32.140Z,17.8
2017-10-18T12:18:07.472Z,17.9
2017-10-18T12:18:09.242Z,17.9
2017-10-18T12:19:09.024Z,18.1
2017-10-18T12:20:08.542Z,18.1
2017-10-18T12:21:07.708Z,18.1
2017-10-18T12:22:06.712Z,18.1
2017-10-18T12:23:06.357Z,18.1
2017-10-18T12:24:05.638Z,18.2
2017-10-18T12:25:04.782Z,18.2
2017-10-18T12:26:04.293Z,18.2
2017-10-18T12:27:03.299Z,18.3
2017-10-18T12:28:02.810Z,18.3
2017-10-18T12:29:01.964Z,18.3
2017-10-18T12:30:01.513Z,18.3
2017-10-18T12:31:00.524Z,18.3
2017-10-18T12:32:59.057Z,18.3
2017-10-18T12:33:58.834Z,18.3
2017-10-18T12:34:57.841Z,18.3
2017-10-18T12:35:57.117Z,18.3
2017-10-18T12:36:55.989Z,18.3
2017-10-18T12:37:56.026Z,18.3
2017-10-18T12:38:55.301Z,18.3
2017-10-18T12:39:54.704Z,18.3
2017-10-18T12:40:53.577Z,18.3
2017-10-18T12:43:22.419Z,18.3
2017-10-18T12:43:24.058Z,18.3
2017-10-18T12:43:54.512Z,18.3
2017-10-18T12:46:00.834Z,18.4
2017-10-18T12:46:02.672Z,18.4
2017-10-18T12:48:17.922Z,18.4
2017-10-18T12:48:19.562Z,18.4
2017-10-18T12:48:49.766Z,18.4
2017-10-18T12:49:47.270Z,18.4
2017-10-18T12:50:52.733Z,18.4
2017-10-18T12:53:33.658Z,18.4
2017-10-18T12:53:35.685Z,18.4
2017-10-18T12:54:44.023Z,18.4
2017-10-18T12:55:43.169Z,18.4
2017-10-18T12:56:42.331Z,18.4
2017-10-18T12:57:41.381Z,18.4
2017-10-18T12:58:41.029Z,18.4
2017-10-18T12:59:40.453Z,18.4
2017-10-18T13:00:39.336Z,18.5
2017-10-18T13:01:38.862Z,18.5
2017-10-18T13:02:38.013Z,18.5
2017-10-18T13:05:00.587Z,18.5
2017-10-18T13:05:02.354Z,18.5
2017-10-18T13:05:35.568Z,18.5
2017-10-18T13:06:35.332Z,18.6
2017-10-18T13:07:34.471Z,18.6
2017-10-18T13:08:34.110Z,18.6
2017-10-18T13:09:33.248Z,18.6
2017-10-18T13:10:32.393Z,18.6
2017-10-18T13:11:32.168Z,18.7
2017-10-18T13:12:31.179Z,18.7
2017-10-18T13:13:30.048Z,18.7
2017-10-18T13:14:29.834Z,18.7
2017-10-18T13:15:28.852Z,18.7
2017-10-18T13:16:28.353Z,18.8
2017-10-18T13:17:27.494Z,18.8
2017-10-18T13:18:27.005Z,18.8
2017-10-18T13:19:25.885Z,18.8
2017-10-18T13:20:25.665Z,18.8
2017-10-18T13:21:25.077Z,18.9
2017-10-18T13:22:24.359Z,18.9
2017-10-18T13:23:23.491Z,18.9
2017-10-18T13:24:22.753Z,18.9
2017-10-18T13:25:22.261Z,18.9
2017-10-18T13:26:21.398Z,18.9
2017-10-18T13:27:21.208Z,18.9
2017-10-18T13:28:20.476Z,18.9
2017-10-18T13:29:19.250Z,19
2017-10-18T13:30:18.455Z,19
2017-10-18T13:31:17.974Z,19.1
2017-10-18T13:32:16.984Z,19
2017-10-18T13:33:16.352Z,19.1
2017-10-18T13:34:15.987Z,19.1
2017-10-18T13:35:14.997Z,19.1
2017-10-18T13:36:14.772Z,19.1
2017-10-18T13:37:13.920Z,19.1
2017-10-18T13:38:13.063Z,19.1
2017-10-18T13:39:12.438Z,19.1
2017-10-18T13:40:11.976Z,19.1
2017-10-18T13:41:11.111Z,19.1
2017-10-18T13:42:10.754Z,19.2
2017-10-18T13:43:09.627Z,19.1
2017-10-18T13:44:09.011Z,19.1
2017-10-18T13:45:08.658Z,19.1
2017-10-18T13:47:07.184Z,19.1
2017-10-18T13:48:06.314Z,19.1
2017-10-18T13:49:05.687Z,19.2
2017-10-18T13:50:04.827Z,19.2
2017-10-18T13:51:04.474Z,19.2
2017-10-18T13:52:03.359Z,19.3
2017-10-18T13:53:02.879Z,19.3
2017-10-18T13:54:01.754Z,19.3
2017-10-18T13:55:01.526Z,19.3
2017-10-18T13:56:00.802Z,19.2
2017-10-18T13:57:00.190Z,19.2
2017-10-18T13:57:59.694Z,19.2
2017-10-18T13:58:58.699Z,19.2
2017-10-18T13:59:58.208Z,19.1
2017-10-18T14:00:57.491Z,19.1
2017-10-18T14:01:56.635Z,19.1
2017-10-18T14:02:56.428Z,19
2017-10-18T14:03:55.573Z,19
2017-10-18T14:04:54.718Z,19
2017-10-18T14:05:53.898Z,19.1
2017-10-18T14:06:53.142Z,19.1
2017-10-18T14:07:52.648Z,19.1
2017-10-18T14:08:52.294Z,19.2
2017-10-18T14:09:51.314Z,19.2
2017-10-18T14:10:50.322Z,19.2
2017-10-18T14:11:50.092Z,19.3
2017-10-18T14:12:49.108Z,19.3
2017-10-18T14:13:49.021Z,19.3
2017-10-18T14:14:47.892Z,19.4
2017-10-18T14:15:47.666Z,19.4
2017-10-18T14:17:45.927Z,19.5
2017-10-18T14:18:45.300Z,19.6
2017-10-18T14:19:44.673Z,19.6
2017-10-18T14:20:43.827Z,19.6
2017-10-18T14:21:43.472Z,19.6
2017-10-18T14:23:41.736Z,19.6
2017-10-18T14:24:41.243Z,19.6
2017-10-18T14:25:40.756Z,19.7
2017-10-18T14:26:39.892Z,19.7
2017-10-18T14:27:39.164Z,19.7
2017-10-18T14:28:38.678Z,19.8
2017-10-18T14:29:37.819Z,19.8
2017-10-18T14:30:37.469Z,19.8
2017-10-18T14:31:36.348Z,19.8
2017-10-18T14:32:35.723Z,19.8
2017-10-18T14:33:35.093Z,19.9
2017-10-18T14:34:34.622Z,20
2017-10-18T14:35:33.904Z,20
2017-10-18T14:36:33.046Z,20.1
2017-10-18T14:37:32.700Z,20.1
2017-10-18T14:38:31.974Z,20.2
2017-10-18T14:39:31.256Z,20.2
2017-10-18T14:40:30.394Z,20.2
2017-10-18T14:41:29.904Z,20.3
2017-10-18T14:42:28.773Z,20.4
2017-10-18T14:43:28.149Z,20.5
2017-10-18T14:44:27.796Z,20.5
2017-10-18T14:45:27.562Z,20.5
2017-10-18T14:46:26.667Z,20.4
2017-10-18T14:47:25.945Z,20.4
2017-10-18T14:48:25.085Z,20.3
2017-10-18T14:50:23.478Z,20.2
2017-10-18T14:51:22.990Z,20.2
2017-10-18T14:52:22.498Z,20.2
2017-10-18T14:53:21.873Z,20.2
2017-10-18T14:54:20.872Z,20.3
2017-10-18T14:55:20.538Z,20.4
2017-10-18T14:56:19.422Z,20.4
2017-10-18T14:57:18.674Z,20.4
2017-10-18T14:58:18.817Z,20.3
2017-10-18T14:59:18.086Z,20.2
2017-10-18T15:00:16.957Z,20.1
2017-10-18T15:01:16.735Z,20
2017-10-18T15:02:15.872Z,19.9
2017-10-18T15:04:14.527Z,19.7
2017-10-18T15:05:13.803Z,19.6
2017-10-18T15:06:13.583Z,19.5
2017-10-18T15:07:12.221Z,19.4
2017-10-18T15:08:12.125Z,19.4
2017-10-18T15:09:11.140Z,19.3
2017-10-18T15:10:10.014Z,19.3
2017-10-18T15:11:09.656Z,19.2
2017-10-18T15:12:09.155Z,19.2
2017-10-18T15:13:08.427Z,19.1
2017-10-18T15:14:07.700Z,19
2017-10-18T15:15:07.212Z,19
2017-10-18T15:16:06.218Z,18.9
2017-10-18T15:17:05.735Z,18.9
2017-10-18T15:18:04.616Z,18.8
2017-10-18T15:19:04.258Z,18.7
2017-10-18T15:20:03.771Z,18.7
2017-10-18T15:21:02.513Z,18.7
2017-10-18T15:22:02.287Z,18.6
2017-10-18T15:23:01.288Z,18.6
2017-10-18T15:24:01.198Z,18.5
2017-10-18T15:25:00.206Z,18.4
2017-10-18T15:26:00.509Z,18.4
2017-10-18T15:26:59.141Z,18.3
2017-10-18T15:27:58.545Z,18.3
2017-10-18T15:28:57.953Z,18.2
2017-10-18T15:29:57.087Z,18.2
2017-10-18T15:30:56.363Z,18.2